sensor_id;sensor_type;location;lat;lon;timestamp;temperature;humidity
13328;DHT22;6733;51.044;3.746;2023-08-08T00:02:16;15.10;99.90
13328;DHT22;6733;51.044;3.746;2023-08-08T00:04:42;15.10;99.90
13328;DHT22;6733;51.044;3.746;2023-08-08T00:07:08;15.10;99.90
13328;DHT22;6733;51.044;3.746;2023-08-08T00:09:34;15.00;99.90
13328;DHT22;6733;51.044;3.746;2023-08-08T00:12:01;15.10;99.90
13328;DHT22;6733;51.044;3.746;2023-08-08T00:14:27;15.10;99.90
13328;DHT22;6733;51.044;3.746;2023-08-08T00:16:53;15.10;99.90
13328;DHT22;6733;51.044;3.746;2023-08-08T00:19:19;15.00;99.90
13328;DHT22;6733;51.044;3.746;2023-08-08T00:21:45;15.00;99.90
13328;DHT22;6733;51.044;3.746;2023-08-08T00:24:12;15.00;99.90
13328;DHT22;6733;51.044;3.746;2023-08-08T00:26:38;15.00;99.90
13328;DHT22;6733;51.044;3.746;2023-08-08T00:29:04;15.00;99.90
13328;DHT22;6733;51.044;3.746;2023-08-08T00:31:30;15.00;99.90
13328;DHT22;6733;51.044;3.746;2023-08-08T00:33:56;15.00;99.90
13328;DHT22;6733;51.044;3.746;2023-08-08T00:36:22;15.00;99.90
13328;DHT22;6733;51.044;3.746;2023-08-08T00:38:48;15.00;99.90
13328;DHT22;6733;51.044;3.746;2023-08-08T00:41:15;15.00;99.90
13328;DHT22;6733;51.044;3.746;2023-08-08T00:43:41;15.00;99.90
13328;DHT22;6733;51.044;3.746;2023-08-08T00:46:09;15.00;99.90
13328;DHT22;6733;51.044;3.746;2023-08-08T00:48:35;15.00;99.90
13328;DHT22;6733;51.044;3.746;2023-08-08T00:51:01;15.00;99.90
13328;DHT22;6733;51.044;3.746;2023-08-08T00:53:28;15.00;99.90
13328;DHT22;6733;51.044;3.746;2023-08-08T00:55:57;15.00;99.90
13328;DHT22;6733;51.044;3.746;2023-08-08T00:58:24;14.90;99.90
13328;DHT22;6733;51.044;3.746;2023-08-08T01:00:50;15.00;99.90
13328;DHT22;6733;51.044;3.746;2023-08-08T01:03:18;14.90;99.90
13328;DHT22;6733;51.044;3.746;2023-08-08T01:05:47;14.90;99.90
13328;DHT22;6733;51.044;3.746;2023-08-08T01:08:15;14.90;99.90
13328;DHT22;6733;51.044;3.746;2023-08-08T01:10:42;14.90;99.90
13328;DHT22;6733;51.044;3.746;2023-08-08T01:13:09;14.90;99.90
13328;DHT22;6733;51.044;3.746;2023-08-08T01:15:36;14.90;99.90
13328;DHT22;6733;51.044;3.746;2023-08-08T01:18:03;14.90;99.90
13328;DHT22;6733;51.044;3.746;2023-08-08T01:20:30;14.90;99.90
13328;DHT22;6733;51.044;3.746;2023-08-08T01:25:38;14.90;99.90
13328;DHT22;6733;51.044;3.746;2023-08-08T01:28:05;14.90;99.90
13328;DHT22;6733;51.044;3.746;2023-08-08T01:30:31;14.90;99.90
13328;DHT22;6733;51.044;3.746;2023-08-08T01:32:57;14.80;99.90
13328;DHT22;6733;51.044;3.746;2023-08-08T01:35:24;14.90;99.90
13328;DHT22;6733;51.044;3.746;2023-08-08T01:37:52;14.80;99.90
13328;DHT22;6733;51.044;3.746;2023-08-08T01:40:19;14.90;99.90
13328;DHT22;6733;51.044;3.746;2023-08-08T01:42:47;14.90;99.90
13328;DHT22;6733;51.044;3.746;2023-08-08T01:45:14;14.90;99.90
13328;DHT22;6733;51.044;3.746;2023-08-08T01:47:41;14.80;99.90
13328;DHT22;6733;51.044;3.746;2023-08-08T01:50:08;14.80;99.90
13328;DHT22;6733;51.044;3.746;2023-08-08T01:52:35;14.80;99.90
13328;DHT22;6733;51.044;3.746;2023-08-08T01:55:01;14.80;99.90
13328;DHT22;6733;51.044;3.746;2023-08-08T01:57:28;14.80;99.90
13328;DHT22;6733;51.044;3.746;2023-08-08T01:59:54;14.80;99.90
13328;DHT22;6733;51.044;3.746;2023-08-08T02:02:20;14.80;99.90
13328;DHT22;6733;51.044;3.746;2023-08-08T02:04:46;14.70;99.90
13328;DHT22;6733;51.044;3.746;2023-08-08T02:07:12;14.80;99.90
13328;DHT22;6733;51.044;3.746;2023-08-08T02:09:38;14.70;99.90
13328;DHT22;6733;51.044;3.746;2023-08-08T02:12:05;14.70;99.90
13328;DHT22;6733;51.044;3.746;2023-08-08T02:14:31;14.70;99.90
13328;DHT22;6733;51.044;3.746;2023-08-08T02:16:57;14.70;99.90
13328;DHT22;6733;51.044;3.746;2023-08-08T02:19:23;14.70;99.90
13328;DHT22;6733;51.044;3.746;2023-08-08T02:21:50;14.70;99.90
13328;DHT22;6733;51.044;3.746;2023-08-08T02:24:16;14.70;99.90
13328;DHT22;6733;51.044;3.746;2023-08-08T02:26:42;14.60;99.90
13328;DHT22;6733;51.044;3.746;2023-08-08T02:29:08;14.60;99.90
13328;DHT22;6733;51.044;3.746;2023-08-08T02:31:34;14.60;99.90
13328;DHT22;6733;51.044;3.746;2023-08-08T02:34:25;14.60;99.90
13328;DHT22;6733;51.044;3.746;2023-08-08T02:37:16;14.70;99.90
13328;DHT22;6733;51.044;3.746;2023-08-08T02:40:07;14.60;99.90
13328;DHT22;6733;51.044;3.746;2023-08-08T02:42:59;14.60;99.90
13328;DHT22;6733;51.044;3.746;2023-08-08T02:45:50;14.60;99.90
13328;DHT22;6733;51.044;3.746;2023-08-08T02:48:41;14.60;99.90
13328;DHT22;6733;51.044;3.746;2023-08-08T02:51:33;14.60;99.90
13328;DHT22;6733;51.044;3.746;2023-08-08T02:54:23;14.60;99.90
13328;DHT22;6733;51.044;3.746;2023-08-08T02:57:15;14.60;99.90
13328;DHT22;6733;51.044;3.746;2023-08-08T02:59:42;14.60;99.90
13328;DHT22;6733;51.044;3.746;2023-08-08T03:02:08;14.60;99.90
13328;DHT22;6733;51.044;3.746;2023-08-08T03:04:34;14.60;99.90
13328;DHT22;6733;51.044;3.746;2023-08-08T03:07:00;14.50;99.90
13328;DHT22;6733;51.044;3.746;2023-08-08T03:09:30;14.50;99.90
13328;DHT22;6733;51.044;3.746;2023-08-08T03:11:56;14.50;99.90
13328;DHT22;6733;51.044;3.746;2023-08-08T03:14:22;14.60;99.90
13328;DHT22;6733;51.044;3.746;2023-08-08T03:16:48;14.50;99.90
13328;DHT22;6733;51.044;3.746;2023-08-08T03:19:15;14.50;99.90
13328;DHT22;6733;51.044;3.746;2023-08-08T03:21:41;14.50;99.90
13328;DHT22;6733;51.044;3.746;2023-08-08T03:24:07;14.50;99.90
13328;DHT22;6733;51.044;3.746;2023-08-08T03:26:33;14.60;99.90
13328;DHT22;6733;51.044;3.746;2023-08-08T03:28:59;14.60;99.90
13328;DHT22;6733;51.044;3.746;2023-08-08T03:31:25;14.60;99.90
13328;DHT22;6733;51.044;3.746;2023-08-08T03:33:53;14.60;99.90
13328;DHT22;6733;51.044;3.746;2023-08-08T03:36:19;14.60;99.90
13328;DHT22;6733;51.044;3.746;2023-08-08T03:38:46;14.60;99.90
13328;DHT22;6733;51.044;3.746;2023-08-08T03:41:13;14.60;99.90
13328;DHT22;6733;51.044;3.746;2023-08-08T03:43:39;14.60;99.90
13328;DHT22;6733;51.044;3.746;2023-08-08T03:46:06;14.60;99.90
13328;DHT22;6733;51.044;3.746;2023-08-08T03:48:32;14.60;99.90
13328;DHT22;6733;51.044;3.746;2023-08-08T03:50:58;14.60;99.90
13328;DHT22;6733;51.044;3.746;2023-08-08T03:53:24;14.60;99.90
13328;DHT22;6733;51.044;3.746;2023-08-08T03:55:50;14.50;99.90
13328;DHT22;6733;51.044;3.746;2023-08-08T03:58:17;14.50;99.90
13328;DHT22;6733;51.044;3.746;2023-08-08T04:00:43;14.60;99.90
13328;DHT22;6733;51.044;3.746;2023-08-08T04:03:15;14.50;99.90
13328;DHT22;6733;51.044;3.746;2023-08-08T04:05:46;14.50;99.90
13328;DHT22;6733;51.044;3.746;2023-08-08T04:08:15;14.60;99.90
13328;DHT22;6733;51.044;3.746;2023-08-08T04:10:42;14.50;99.90
13328;DHT22;6733;51.044;3.746;2023-08-08T04:13:09;14.50;99.90
13328;DHT22;6733;51.044;3.746;2023-08-08T04:15:36;14.50;99.90
13328;DHT22;6733;51.044;3.746;2023-08-08T04:18:02;14.50;99.90
13328;DHT22;6733;51.044;3.746;2023-08-08T04:20:28;14.50;99.90
13328;DHT22;6733;51.044;3.746;2023-08-08T04:22:54;14.50;99.90
13328;DHT22;6733;51.044;3.746;2023-08-08T04:25:21;14.50;99.90
13328;DHT22;6733;51.044;3.746;2023-08-08T04:27:47;14.60;99.90
13328;DHT22;6733;51.044;3.746;2023-08-08T04:30:13;14.60;99.90
13328;DHT22;6733;51.044;3.746;2023-08-08T04:32:39;14.60;99.90
13328;DHT22;6733;51.044;3.746;2023-08-08T04:35:06;14.60;99.90
13328;DHT22;6733;51.044;3.746;2023-08-08T04:37:32;14.60;99.90
13328;DHT22;6733;51.044;3.746;2023-08-08T04:39:58;14.60;99.90
13328;DHT22;6733;51.044;3.746;2023-08-08T04:42:24;14.60;99.90
13328;DHT22;6733;51.044;3.746;2023-08-08T04:44:51;14.60;99.90
13328;DHT22;6733;51.044;3.746;2023-08-08T04:47:17;14.60;99.90
13328;DHT22;6733;51.044;3.746;2023-08-08T04:49:43;14.60;99.90
13328;DHT22;6733;51.044;3.746;2023-08-08T04:52:09;14.60;99.90
13328;DHT22;6733;51.044;3.746;2023-08-08T04:54:35;14.70;99.90
13328;DHT22;6733;51.044;3.746;2023-08-08T04:57:01;14.70;99.90
13328;DHT22;6733;51.044;3.746;2023-08-08T04:59:28;14.70;99.90
13328;DHT22;6733;51.044;3.746;2023-08-08T05:01:54;14.70;99.90
13328;DHT22;6733;51.044;3.746;2023-08-08T05:04:20;14.70;99.90
13328;DHT22;6733;51.044;3.746;2023-08-08T05:06:46;14.80;99.90
13328;DHT22;6733;51.044;3.746;2023-08-08T05:09:12;14.70;99.90
13328;DHT22;6733;51.044;3.746;2023-08-08T05:11:39;14.80;99.90
13328;DHT22;6733;51.044;3.746;2023-08-08T05:14:05;14.80;99.90
13328;DHT22;6733;51.044;3.746;2023-08-08T05:16:31;14.90;99.90
13328;DHT22;6733;51.044;3.746;2023-08-08T05:18:57;14.90;99.90
13328;DHT22;6733;51.044;3.746;2023-08-08T05:21:24;15.00;99.90
13328;DHT22;6733;51.044;3.746;2023-08-08T05:23:50;15.00;99.90
13328;DHT22;6733;51.044;3.746;2023-08-08T05:26:16;15.00;99.90
13328;DHT22;6733;51.044;3.746;2023-08-08T05:28:42;15.00;99.90
13328;DHT22;6733;51.044;3.746;2023-08-08T05:31:09;15.00;99.90
13328;DHT22;6733;51.044;3.746;2023-08-08T05:33:36;15.00;99.90
13328;DHT22;6733;51.044;3.746;2023-08-08T05:36:02;15.00;99.90
13328;DHT22;6733;51.044;3.746;2023-08-08T05:38:28;15.00;99.90
13328;DHT22;6733;51.044;3.746;2023-08-08T05:40:55;15.00;99.90
13328;DHT22;6733;51.044;3.746;2023-08-08T05:43:21;15.00;99.90
13328;DHT22;6733;51.044;3.746;2023-08-08T05:45:47;15.10;99.90
13328;DHT22;6733;51.044;3.746;2023-08-08T05:48:14;15.10;99.90
13328;DHT22;6733;51.044;3.746;2023-08-08T05:50:40;15.10;99.90
13328;DHT22;6733;51.044;3.746;2023-08-08T05:53:06;15.20;99.90
13328;DHT22;6733;51.044;3.746;2023-08-08T05:55:33;15.20;99.90
13328;DHT22;6733;51.044;3.746;2023-08-08T05:57:59;15.30;99.90
13328;DHT22;6733;51.044;3.746;2023-08-08T06:00:26;15.30;99.90
13328;DHT22;6733;51.044;3.746;2023-08-08T06:02:52;15.30;99.90
13328;DHT22;6733;51.044;3.746;2023-08-08T06:05:19;15.40;99.90
13328;DHT22;6733;51.044;3.746;2023-08-08T06:07:47;15.50;99.90
13328;DHT22;6733;51.044;3.746;2023-08-08T06:10:13;15.60;99.90
13328;DHT22;6733;51.044;3.746;2023-08-08T06:12:39;15.70;99.90
13328;DHT22;6733;51.044;3.746;2023-08-08T06:15:06;15.80;99.90
13328;DHT22;6733;51.044;3.746;2023-08-08T06:17:32;15.80;99.90
13328;DHT22;6733;51.044;3.746;2023-08-08T06:19:59;15.90;99.90
13328;DHT22;6733;51.044;3.746;2023-08-08T06:22:25;16.00;99.90
13328;DHT22;6733;51.044;3.746;2023-08-08T06:24:51;16.10;99.90
13328;DHT22;6733;51.044;3.746;2023-08-08T06:27:17;16.20;99.90
13328;DHT22;6733;51.044;3.746;2023-08-08T06:29:44;16.40;99.90
13328;DHT22;6733;51.044;3.746;2023-08-08T06:32:10;16.50;99.90
13328;DHT22;6733;51.044;3.746;2023-08-08T06:34:36;16.60;99.90
13328;DHT22;6733;51.044;3.746;2023-08-08T06:37:02;16.70;99.90
13328;DHT22;6733;51.044;3.746;2023-08-08T06:39:29;16.80;99.90
13328;DHT22;6733;51.044;3.746;2023-08-08T06:41:55;17.00;99.90
13328;DHT22;6733;51.044;3.746;2023-08-08T06:44:21;17.20;99.90
13328;DHT22;6733;51.044;3.746;2023-08-08T06:46:48;17.30;99.90
13328;DHT22;6733;51.044;3.746;2023-08-08T06:49:14;17.40;99.90
13328;DHT22;6733;51.044;3.746;2023-08-08T06:51:40;17.50;99.90
13328;DHT22;6733;51.044;3.746;2023-08-08T06:54:06;17.50;99.90
13328;DHT22;6733;51.044;3.746;2023-08-08T06:56:33;17.60;99.90
13328;DHT22;6733;51.044;3.746;2023-08-08T06:59:00;17.70;99.90
13328;DHT22;6733;51.044;3.746;2023-08-08T07:01:26;17.70;99.90
13328;DHT22;6733;51.044;3.746;2023-08-08T07:03:52;17.70;99.90
13328;DHT22;6733;51.044;3.746;2023-08-08T07:06:18;17.80;99.90
13328;DHT22;6733;51.044;3.746;2023-08-08T07:08:45;17.80;99.90
13328;DHT22;6733;51.044;3.746;2023-08-08T07:11:11;17.80;99.90
13328;DHT22;6733;51.044;3.746;2023-08-08T07:13:37;17.90;99.90
13328;DHT22;6733;51.044;3.746;2023-08-08T07:16:03;17.90;99.90
13328;DHT22;6733;51.044;3.746;2023-08-08T07:18:30;17.90;99.90
13328;DHT22;6733;51.044;3.746;2023-08-08T07:20:56;17.90;99.90
13328;DHT22;6733;51.044;3.746;2023-08-08T07:23:23;18.00;99.90
13328;DHT22;6733;51.044;3.746;2023-08-08T07:25:49;17.90;99.90
13328;DHT22;6733;51.044;3.746;2023-08-08T07:28:15;18.10;99.90
13328;DHT22;6733;51.044;3.746;2023-08-08T07:30:42;18.10;99.90
13328;DHT22;6733;51.044;3.746;2023-08-08T07:33:08;18.10;99.90
13328;DHT22;6733;51.044;3.746;2023-08-08T07:35:34;18.10;99.90
13328;DHT22;6733;51.044;3.746;2023-08-08T07:38:00;18.20;99.90
13328;DHT22;6733;51.044;3.746;2023-08-08T07:40:27;18.40;99.90
13328;DHT22;6733;51.044;3.746;2023-08-08T07:42:53;18.60;99.90
13328;DHT22;6733;51.044;3.746;2023-08-08T07:45:20;18.20;99.90
13328;DHT22;6733;51.044;3.746;2023-08-08T07:47:46;18.40;99.90
13328;DHT22;6733;51.044;3.746;2023-08-08T07:50:13;18.50;99.90
13328;DHT22;6733;51.044;3.746;2023-08-08T07:52:40;18.60;99.90
13328;DHT22;6733;51.044;3.746;2023-08-08T07:55:07;18.80;99.90
13328;DHT22;6733;51.044;3.746;2023-08-08T07:57:34;18.90;99.90
13328;DHT22;6733;51.044;3.746;2023-08-08T08:00:04;18.80;99.90
13328;DHT22;6733;51.044;3.746;2023-08-08T08:02:35;18.80;99.90
13328;DHT22;6733;51.044;3.746;2023-08-08T08:05:01;18.90;99.90
13328;DHT22;6733;51.044;3.746;2023-08-08T08:07:29;18.90;99.90
13328;DHT22;6733;51.044;3.746;2023-08-08T08:09:55;18.80;99.90
13328;DHT22;6733;51.044;3.746;2023-08-08T08:12:22;18.70;99.90
13328;DHT22;6733;51.044;3.746;2023-08-08T08:14:48;18.60;99.90
13328;DHT22;6733;51.044;3.746;2023-08-08T08:17:14;18.70;99.90
13328;DHT22;6733;51.044;3.746;2023-08-08T08:19:40;18.80;99.90
13328;DHT22;6733;51.044;3.746;2023-08-08T08:22:07;18.90;99.90
13328;DHT22;6733;51.044;3.746;2023-08-08T08:24:33;19.10;99.90
13328;DHT22;6733;51.044;3.746;2023-08-08T08:26:59;19.10;99.90
13328;DHT22;6733;51.044;3.746;2023-08-08T08:29:25;19.30;99.90
13328;DHT22;6733;51.044;3.746;2023-08-08T08:31:51;19.50;99.90
13328;DHT22;6733;51.044;3.746;2023-08-08T08:34:18;19.50;99.90
13328;DHT22;6733;51.044;3.746;2023-08-08T08:36:44;19.70;99.90
13328;DHT22;6733;51.044;3.746;2023-08-08T08:39:10;20.00;99.90
13328;DHT22;6733;51.044;3.746;2023-08-08T08:41:36;20.10;99.90
13328;DHT22;6733;51.044;3.746;2023-08-08T08:44:04;20.30;99.90
13328;DHT22;6733;51.044;3.746;2023-08-08T08:46:32;20.20;99.90
13328;DHT22;6733;51.044;3.746;2023-08-08T08:49:03;20.10;99.90
13328;DHT22;6733;51.044;3.746;2023-08-08T08:51:31;20.10;99.90
13328;DHT22;6733;51.044;3.746;2023-08-08T08:53:58;20.20;99.90
13328;DHT22;6733;51.044;3.746;2023-08-08T08:56:25;20.30;99.90
13328;DHT22;6733;51.044;3.746;2023-08-08T08:58:51;20.20;99.90
13328;DHT22;6733;51.044;3.746;2023-08-08T09:01:18;20.20;99.90
13328;DHT22;6733;51.044;3.746;2023-08-08T09:03:45;20.10;99.90
13328;DHT22;6733;51.044;3.746;2023-08-08T09:06:11;20.40;99.90
13328;DHT22;6733;51.044;3.746;2023-08-08T09:08:38;20.80;99.90
13328;DHT22;6733;51.044;3.746;2023-08-08T09:11:04;21.00;99.90
13328;DHT22;6733;51.044;3.746;2023-08-08T09:13:38;21.30;99.90
13328;DHT22;6733;51.044;3.746;2023-08-08T09:16:06;21.70;99.90
13328;DHT22;6733;51.044;3.746;2023-08-08T09:18:32;22.10;99.90
13328;DHT22;6733;51.044;3.746;2023-08-08T09:20:59;22.00;99.90
13328;DHT22;6733;51.044;3.746;2023-08-08T09:23:28;22.10;99.90
13328;DHT22;6733;51.044;3.746;2023-08-08T09:25:54;22.20;99.90
13328;DHT22;6733;51.044;3.746;2023-08-08T09:28:21;22.40;99.90
13328;DHT22;6733;51.044;3.746;2023-08-08T09:30:48;22.40;99.90
13328;DHT22;6733;51.044;3.746;2023-08-08T09:33:16;21.90;99.90
13328;DHT22;6733;51.044;3.746;2023-08-08T09:35:43;21.80;99.90
13328;DHT22;6733;51.044;3.746;2023-08-08T09:38:10;21.90;99.90
13328;DHT22;6733;51.044;3.746;2023-08-08T09:40:36;21.80;99.90
13328;DHT22;6733;51.044;3.746;2023-08-08T09:43:03;21.60;99.90
13328;DHT22;6733;51.044;3.746;2023-08-08T09:45:39;21.40;99.90
13328;DHT22;6733;51.044;3.746;2023-08-08T09:48:07;21.70;99.90
13328;DHT22;6733;51.044;3.746;2023-08-08T09:50:34;21.80;99.90
13328;DHT22;6733;51.044;3.746;2023-08-08T09:53:02;21.80;99.90
13328;DHT22;6733;51.044;3.746;2023-08-08T09:55:29;21.50;99.90
13328;DHT22;6733;51.044;3.746;2023-08-08T09:57:57;21.10;99.90
13328;DHT22;6733;51.044;3.746;2023-08-08T10:00:25;20.80;99.90
13328;DHT22;6733;51.044;3.746;2023-08-08T10:02:54;20.80;99.90
13328;DHT22;6733;51.044;3.746;2023-08-08T10:05:21;20.90;99.90
13328;DHT22;6733;51.044;3.746;2023-08-08T10:07:48;21.20;99.90
13328;DHT22;6733;51.044;3.746;2023-08-08T10:10:14;21.50;99.90
13328;DHT22;6733;51.044;3.746;2023-08-08T10:12:41;21.50;99.90
13328;DHT22;6733;51.044;3.746;2023-08-08T10:15:11;21.60;99.90
13328;DHT22;6733;51.044;3.746;2023-08-08T10:17:39;21.60;99.90
13328;DHT22;6733;51.044;3.746;2023-08-08T10:20:08;21.50;99.90
13328;DHT22;6733;51.044;3.746;2023-08-08T10:22:46;21.30;99.90
13328;DHT22;6733;51.044;3.746;2023-08-08T10:27:46;21.70;99.90
13328;DHT22;6733;51.044;3.746;2023-08-08T10:30:12;21.20;99.90
13328;DHT22;6733;51.044;3.746;2023-08-08T10:32:44;21.00;99.90
13328;DHT22;6733;51.044;3.746;2023-08-08T10:35:12;21.50;99.90
13328;DHT22;6733;51.044;3.746;2023-08-08T10:37:39;22.00;99.90
13328;DHT22;6733;51.044;3.746;2023-08-08T10:40:06;22.60;99.90
13328;DHT22;6733;51.044;3.746;2023-08-08T10:42:41;22.60;99.90
13328;DHT22;6733;51.044;3.746;2023-08-08T10:45:11;21.70;99.90
13328;DHT22;6733;51.044;3.746;2023-08-08T10:47:38;21.10;99.90
13328;DHT22;6733;51.044;3.746;2023-08-08T10:50:12;20.90;99.90
13328;DHT22;6733;51.044;3.746;2023-08-08T10:52:55;20.40;99.90
13328;DHT22;6733;51.044;3.746;2023-08-08T10:55:23;20.30;99.90
13328;DHT22;6733;51.044;3.746;2023-08-08T11:00:28;20.30;99.90
13328;DHT22;6733;51.044;3.746;2023-08-08T11:02:56;20.70;99.90
13328;DHT22;6733;51.044;3.746;2023-08-08T11:05:28;21.00;99.90
13328;DHT22;6733;51.044;3.746;2023-08-08T11:07:54;21.20;99.90
13328;DHT22;6733;51.044;3.746;2023-08-08T11:10:21;21.50;99.90
13328;DHT22;6733;51.044;3.746;2023-08-08T11:13:01;21.70;99.90
13328;DHT22;6733;51.044;3.746;2023-08-08T11:15:31;21.80;99.90
13328;DHT22;6733;51.044;3.746;2023-08-08T11:17:58;22.00;99.90
13328;DHT22;6733;51.044;3.746;2023-08-08T11:20:31;22.20;99.90
13328;DHT22;6733;51.044;3.746;2023-08-08T11:22:58;22.50;99.90
13328;DHT22;6733;51.044;3.746;2023-08-08T11:25:27;22.70;99.90
13328;DHT22;6733;51.044;3.746;2023-08-08T11:27:55;22.90;99.90
13328;DHT22;6733;51.044;3.746;2023-08-08T11:30:22;23.10;99.90
13328;DHT22;6733;51.044;3.746;2023-08-08T11:32:50;23.00;99.90
13328;DHT22;6733;51.044;3.746;2023-08-08T11:35:24;23.10;99.90
13328;DHT22;6733;51.044;3.746;2023-08-08T11:37:52;23.20;99.90
13328;DHT22;6733;51.044;3.746;2023-08-08T11:40:19;23.50;99.90
13328;DHT22;6733;51.044;3.746;2023-08-08T11:42:50;22.90;99.90
13328;DHT22;6733;51.044;3.746;2023-08-08T11:45:18;22.10;99.90
13328;DHT22;6733;51.044;3.746;2023-08-08T11:47:48;22.20;99.90
13328;DHT22;6733;51.044;3.746;2023-08-08T11:50:15;22.10;99.90
13328;DHT22;6733;51.044;3.746;2023-08-08T11:52:43;22.60;99.90
13328;DHT22;6733;51.044;3.746;2023-08-08T11:55:09;23.00;99.90
13328;DHT22;6733;51.044;3.746;2023-08-08T11:57:37;23.30;99.90
13328;DHT22;6733;51.044;3.746;2023-08-08T12:00:07;22.50;99.90
13328;DHT22;6733;51.044;3.746;2023-08-08T12:02:35;22.30;99.90
13328;DHT22;6733;51.044;3.746;2023-08-08T12:05:05;22.00;99.90
13328;DHT22;6733;51.044;3.746;2023-08-08T12:07:33;22.80;99.90
13328;DHT22;6733;51.044;3.746;2023-08-08T12:10:00;22.80;99.90
13328;DHT22;6733;51.044;3.746;2023-08-08T12:12:27;22.70;99.90
13328;DHT22;6733;51.044;3.746;2023-08-08T12:15:08;22.80;99.90
13328;DHT22;6733;51.044;3.746;2023-08-08T12:17:36;23.10;99.90
13328;DHT22;6733;51.044;3.746;2023-08-08T12:20:07;23.30;99.90
13328;DHT22;6733;51.044;3.746;2023-08-08T12:22:34;23.60;99.90
13328;DHT22;6733;51.044;3.746;2023-08-08T12:25:00;24.00;99.90
13328;DHT22;6733;51.044;3.746;2023-08-08T12:27:27;24.40;99.90
13328;DHT22;6733;51.044;3.746;2023-08-08T12:29:53;24.70;99.90
13328;DHT22;6733;51.044;3.746;2023-08-08T12:32:20;24.70;99.90
13328;DHT22;6733;51.044;3.746;2023-08-08T12:34:50;24.80;99.90
13328;DHT22;6733;51.044;3.746;2023-08-08T12:37:16;24.40;99.90
13328;DHT22;6733;51.044;3.746;2023-08-08T12:39:42;23.80;99.90
13328;DHT22;6733;51.044;3.746;2023-08-08T12:42:09;23.00;99.90
13328;DHT22;6733;51.044;3.746;2023-08-08T12:44:35;23.20;99.90
13328;DHT22;6733;51.044;3.746;2023-08-08T12:47:01;23.60;99.90
13328;DHT22;6733;51.044;3.746;2023-08-08T12:49:27;24.10;99.90
13328;DHT22;6733;51.044;3.746;2023-08-08T12:51:54;24.20;99.90
13328;DHT22;6733;51.044;3.746;2023-08-08T12:54:22;24.40;99.90
13328;DHT22;6733;51.044;3.746;2023-08-08T12:56:48;24.70;99.90
13328;DHT22;6733;51.044;3.746;2023-08-08T12:59:14;24.30;99.90
13328;DHT22;6733;51.044;3.746;2023-08-08T13:01:40;24.10;99.90
13328;DHT22;6733;51.044;3.746;2023-08-08T13:04:07;24.30;99.90
13328;DHT22;6733;51.044;3.746;2023-08-08T13:06:33;24.90;99.90
13328;DHT22;6733;51.044;3.746;2023-08-08T13:09:00;25.00;99.90
13328;DHT22;6733;51.044;3.746;2023-08-08T13:11:26;25.20;99.90
13328;DHT22;6733;51.044;3.746;2023-08-08T13:13:53;25.20;99.90
13328;DHT22;6733;51.044;3.746;2023-08-08T13:16:19;25.10;99.90
13328;DHT22;6733;51.044;3.746;2023-08-08T13:18:45;25.10;99.90
13328;DHT22;6733;51.044;3.746;2023-08-08T13:21:12;24.60;99.90
13328;DHT22;6733;51.044;3.746;2023-08-08T13:23:40;24.20;99.90
13328;DHT22;6733;51.044;3.746;2023-08-08T13:26:07;24.00;99.90
13328;DHT22;6733;51.044;3.746;2023-08-08T13:28:33;23.70;99.90
13328;DHT22;6733;51.044;3.746;2023-08-08T13:30:59;23.60;99.90
13328;DHT22;6733;51.044;3.746;2023-08-08T13:33:26;23.40;99.90
13328;DHT22;6733;51.044;3.746;2023-08-08T13:35:53;23.00;99.90
13328;DHT22;6733;51.044;3.746;2023-08-08T13:38:19;22.60;99.90
13328;DHT22;6733;51.044;3.746;2023-08-08T13:40:45;22.50;99.90
13328;DHT22;6733;51.044;3.746;2023-08-08T13:43:11;21.90;99.90
13328;DHT22;6733;51.044;3.746;2023-08-08T13:45:37;21.70;99.90
13328;DHT22;6733;51.044;3.746;2023-08-08T13:48:04;21.80;99.90
13328;DHT22;6733;51.044;3.746;2023-08-08T13:50:31;21.70;99.90
13328;DHT22;6733;51.044;3.746;2023-08-08T13:52:57;21.50;99.90
13328;DHT22;6733;51.044;3.746;2023-08-08T13:55:25;21.50;99.90
13328;DHT22;6733;51.044;3.746;2023-08-08T13:57:52;21.50;99.90
13328;DHT22;6733;51.044;3.746;2023-08-08T14:00:21;21.40;99.90
13328;DHT22;6733;51.044;3.746;2023-08-08T14:02:47;21.40;99.90
13328;DHT22;6733;51.044;3.746;2023-08-08T14:05:14;21.40;99.90
13328;DHT22;6733;51.044;3.746;2023-08-08T14:07:41;21.40;99.90
13328;DHT22;6733;51.044;3.746;2023-08-08T14:10:07;21.40;99.90
13328;DHT22;6733;51.044;3.746;2023-08-08T14:12:35;21.30;99.90
13328;DHT22;6733;51.044;3.746;2023-08-08T14:15:01;21.10;99.90
13328;DHT22;6733;51.044;3.746;2023-08-08T14:17:27;21.10;99.90
13328;DHT22;6733;51.044;3.746;2023-08-08T14:19:53;20.90;99.90
13328;DHT22;6733;51.044;3.746;2023-08-08T14:22:20;20.90;99.90
13328;DHT22;6733;51.044;3.746;2023-08-08T14:24:46;21.10;99.90
13328;DHT22;6733;51.044;3.746;2023-08-08T14:27:12;21.30;99.90
13328;DHT22;6733;51.044;3.746;2023-08-08T14:29:38;21.30;99.90
13328;DHT22;6733;51.044;3.746;2023-08-08T14:32:05;21.40;99.90
13328;DHT22;6733;51.044;3.746;2023-08-08T14:34:34;21.40;99.90
13328;DHT22;6733;51.044;3.746;2023-08-08T14:37:01;21.20;99.90
13328;DHT22;6733;51.044;3.746;2023-08-08T14:39:27;21.00;99.90
13328;DHT22;6733;51.044;3.746;2023-08-08T14:41:54;21.00;99.90
13328;DHT22;6733;51.044;3.746;2023-08-08T14:44:20;20.90;99.90
13328;DHT22;6733;51.044;3.746;2023-08-08T14:46:47;21.00;99.90
13328;DHT22;6733;51.044;3.746;2023-08-08T14:49:14;20.90;99.90
13328;DHT22;6733;51.044;3.746;2023-08-08T14:51:40;20.60;99.90
13328;DHT22;6733;51.044;3.746;2023-08-08T14:54:06;20.60;99.90
13328;DHT22;6733;51.044;3.746;2023-08-08T14:56:32;20.80;99.90
13328;DHT22;6733;51.044;3.746;2023-08-08T14:58:59;21.00;99.90
13328;DHT22;6733;51.044;3.746;2023-08-08T15:01:25;21.00;99.90
13328;DHT22;6733;51.044;3.746;2023-08-08T15:03:51;20.80;99.90
13328;DHT22;6733;51.044;3.746;2023-08-08T15:06:17;20.60;99.90
13328;DHT22;6733;51.044;3.746;2023-08-08T15:08:44;20.60;99.90
13328;DHT22;6733;51.044;3.746;2023-08-08T15:11:10;20.60;99.90
13328;DHT22;6733;51.044;3.746;2023-08-08T15:13:37;20.60;99.90
13328;DHT22;6733;51.044;3.746;2023-08-08T15:16:04;20.60;99.90
13328;DHT22;6733;51.044;3.746;2023-08-08T15:18:30;20.60;99.90
13328;DHT22;6733;51.044;3.746;2023-08-08T15:20:56;20.50;99.90
13328;DHT22;6733;51.044;3.746;2023-08-08T15:23:22;20.50;99.90
13328;DHT22;6733;51.044;3.746;2023-08-08T15:25:48;20.60;99.90
13328;DHT22;6733;51.044;3.746;2023-08-08T15:28:15;20.70;99.90
13328;DHT22;6733;51.044;3.746;2023-08-08T15:30:41;20.70;99.90
13328;DHT22;6733;51.044;3.746;2023-08-08T15:33:07;20.90;99.90
13328;DHT22;6733;51.044;3.746;2023-08-08T15:35:33;20.90;99.90
13328;DHT22;6733;51.044;3.746;2023-08-08T15:38:00;20.90;99.90
13328;DHT22;6733;51.044;3.746;2023-08-08T15:40:26;20.70;99.90
13328;DHT22;6733;51.044;3.746;2023-08-08T15:42:52;20.60;99.90
13328;DHT22;6733;51.044;3.746;2023-08-08T15:45:18;20.40;99.90
13328;DHT22;6733;51.044;3.746;2023-08-08T15:47:44;20.20;99.90
13328;DHT22;6733;51.044;3.746;2023-08-08T15:50:11;20.20;99.90
13328;DHT22;6733;51.044;3.746;2023-08-08T15:52:37;20.20;99.90
13328;DHT22;6733;51.044;3.746;2023-08-08T15:55:04;20.20;99.90